Time;durP1;ratioP1;P1;durP2;ratioP2;P2;SDS_P1;SDS_P2;PMS_P1;PMS_P2;Temp;Humidity;BMP_temperature;BMP_pressure;BME280_temperature;BME280_humidity;BME280_pressure;Samples;Min_cycle;Max_cycle;Signal;HPM_P1;HPM_P2
2024/04/04 00:00:06;;;;;;;0.38;0.38;;;12.90;94.00;14.40;99552.00;;;;5014021;28;20237;-69
2024/04/04 00:02:33;;;;;;;0.30;0.30;;;12.90;94.10;14.40;99556.00;;;;5018187;28;20252;-65
2024/04/04 00:05:00;;;;;;;0.30;0.30;;;12.90;94.10;14.30;99540.00;;;;5014420;28;20260;-65
2024/04/04 00:07:29;;;;;;;0.35;0.35;;;12.80;94.10;14.30;99551.00;;;;5014915;28;20331;-64
2024/04/04 00:09:57;;;;;;;0.35;0.35;;;12.80;94.10;14.20;99532.00;;;;5013507;28;20211;-69
2024/04/04 00:12:26;;;;;;;0.30;0.30;;;12.70;94.10;14.10;99493.00;;;;5018395;28;20676;-65
2024/04/04 00:14:53;;;;;;;0.40;0.40;;;12.70;94.20;14.10;99521.00;;;;5013533;28;20599;-65
2024/04/04 00:17:20;;;;;;;0.30;0.30;;;12.70;94.20;14.10;99540.00;;;;5013451;28;20243;-67
2024/04/04 00:19:47;;;;;;;0.30;0.30;;;12.60;94.20;14.00;99523.00;;;;5011899;28;20217;-64
2024/04/04 00:22:14;;;;;;;0.30;0.30;;;12.60;94.20;13.90;99517.00;;;;5019207;28;20236;-72
2024/04/04 00:24:41;;;;;;;0.30;0.30;;;12.60;94.30;14.00;99506.00;;;;5012742;28;20304;-65
2024/04/04 00:27:08;;;;;;;0.30;0.30;;;12.60;94.30;14.00;99523.00;;;;5016874;28;20216;-65
2024/04/04 00:29:36;;;;;;;0.30;0.30;;;12.50;94.30;14.00;99498.00;;;;5013724;28;20679;-64
2024/04/04 00:32:04;;;;;;;0.30;0.30;;;12.50;94.40;14.00;99506.00;;;;5015306;28;20296;-64
2024/04/04 00:34:30;;;;;;;0.30;0.30;;;12.50;94.40;13.90;99517.00;;;;5013683;28;20658;-65
2024/04/04 00:36:58;;;;;;;0.30;0.30;;;12.50;94.50;13.90;99514.00;;;;5016223;28;20228;-64
2024/04/04 00:39:24;;;;;;;0.30;0.30;;;12.50;94.50;13.90;99491.00;;;;5016201;28;20220;-66
2024/04/04 00:41:52;;;;;;;0.30;0.30;;;12.50;94.50;13.90;99497.00;;;;5017012;28;20197;-67
2024/04/04 00:44:18;;;;;;;0.40;0.40;;;12.50;94.50;13.90;99485.00;;;;5016374;28;20272;-67
2024/04/04 00:46:47;;;;;;;0.30;0.30;;;12.40;94.50;13.80;99479.00;;;;5015652;28;20303;-65
2024/04/04 00:49:14;;;;;;;0.30;0.30;;;12.40;94.50;13.80;99455.00;;;;5015750;28;20240;-68
2024/04/04 00:51:41;;;;;;;0.30;0.30;;;12.40;94.50;13.80;99460.00;;;;5014686;28;20197;-66
2024/04/04 00:54:08;;;;;;;0.40;0.40;;;12.40;94.60;13.80;99473.00;;;;5015851;28;20312;-66
2024/04/04 00:56:36;;;;;;;0.40;0.40;;;12.40;94.60;13.80;99477.00;;;;5011964;28;20237;-66
2024/04/04 00:59:02;;;;;;;0.30;0.30;;;12.40;94.70;13.80;99492.00;;;;5013856;28;20706;-65
2024/04/04 01:01:30;;;;;;;0.30;0.30;;;12.40;94.70;13.80;99447.00;;;;5015649;28;20302;-65
2024/04/04 01:03:58;;;;;;;0.32;0.32;;;12.40;94.80;13.80;99471.00;;;;5013821;28;20622;-66
2024/04/04 01:06:32;;;;;;;0.40;0.40;;;12.30;94.70;13.80;99468.00;;;;5017678;28;20573;-66
2024/04/04 01:09:00;;;;;;;0.40;0.40;;;12.40;94.80;13.90;99449.00;;;;5018415;28;20209;-66
2024/04/04 01:11:27;;;;;;;0.30;0.30;;;12.40;94.80;13.90;99452.00;;;;5015686;28;20601;-65
2024/04/04 01:13:54;;;;;;;0.35;0.35;;;12.40;94.80;13.90;99463.00;;;;5018481;28;20296;-64
2024/04/04 01:16:22;;;;;;;0.40;0.40;;;12.40;94.80;13.90;99465.00;;;;5017107;28;20224;-69
2024/04/04 01:18:48;;;;;;;0.30;0.30;;;12.40;94.80;13.90;99458.00;;;;5017395;28;20537;-66
2024/04/04 01:21:18;;;;;;;0.38;0.38;;;12.40;94.90;13.90;99415.00;;;;5018252;28;20210;-66
2024/04/04 01:23:46;;;;;;;0.30;0.30;;;12.40;94.90;14.00;99448.00;;;;5015812;28;20550;-66
2024/04/04 01:26:14;;;;;;;0.30;0.30;;;12.40;94.90;14.00;99436.00;;;;5017995;28;20239;-65
2024/04/04 01:28:40;;;;;;;0.30;0.30;;;12.50;94.90;14.00;99429.00;;;;5017708;28;20650;-65
2024/04/04 01:31:08;;;;;;;0.30;0.30;;;12.50;94.90;14.00;99445.00;;;;5020163;28;20292;-65
2024/04/04 01:33:34;;;;;;;0.30;0.30;;;12.50;94.90;14.00;99444.00;;;;5017681;28;20217;-69
2024/04/04 01:36:01;;;;;;;0.40;0.40;;;12.50;95.30;14.00;99416.00;;;;5020016;28;20619;-65
2024/04/04 01:38:27;;;;;;;0.30;0.30;;;12.50;95.30;14.10;99422.00;;;;5020178;28;20291;-66
2024/04/04 01:40:56;;;;;;;0.40;0.40;;;12.50;95.00;14.10;99419.00;;;;5018943;28;20613;-66
2024/04/04 01:43:23;;;;;;;0.30;0.30;;;12.50;95.00;14.10;99402.00;;;;5015476;28;20239;-66
2024/04/04 01:45:50;;;;;;;0.40;0.40;;;12.60;95.20;14.10;99410.00;;;;5016764;28;20219;-66
2024/04/04 01:48:19;;;;;;;0.35;0.35;;;12.60;95.20;14.10;99411.00;;;;5022444;28;20259;-68
2024/04/04 01:50:46;;;;;;;0.35;0.35;;;12.60;95.20;14.10;99401.00;;;;5016147;28;20289;-66
2024/04/04 01:53:12;;;;;;;0.35;0.35;;;12.60;95.20;14.10;99387.00;;;;5017270;28;20217;-66
2024/04/04 01:55:40;;;;;;;0.30;0.30;;;12.60;95.20;14.10;99407.00;;;;5014167;28;20229;-64
2024/04/04 01:58:07;;;;;;;0.35;0.35;;;12.60;95.20;14.10;99401.00;;;;5017680;28;20757;-66
2024/04/04 02:00:36;;;;;;;0.40;0.40;;;12.70;95.30;14.20;99407.00;;;;5014550;28;20201;-64
2024/04/04 02:03:03;;;;;;;0.40;0.40;;;12.60;95.30;14.20;99399.00;;;;5017347;28;20201;-64
2024/04/04 02:05:32;;;;;;;0.30;0.30;;;12.70;95.30;14.20;99402.00;;;;5018739;28;20304;-66
2024/04/04 02:07:59;;;;;;;0.40;0.40;;;12.70;95.40;14.20;99382.00;;;;5017863;28;20213;-66
2024/04/04 02:10:26;;;;;;;0.30;0.30;;;12.70;95.40;14.30;99415.00;;;;5018009;28;20207;-64
2024/04/04 02:12:52;;;;;;;0.38;0.38;;;12.70;95.40;14.30;99416.00;;;;5016197;28;20208;-65
2024/04/04 02:15:21;;;;;;;0.30;0.30;;;12.80;95.50;14.30;99402.00;;;;5016851;28;20217;-64
2024/04/04 02:17:47;;;;;;;0.40;0.40;;;12.80;95.60;14.30;99398.00;;;;5013580;28;20209;-65
2024/04/04 02:20:15;;;;;;;0.40;0.40;;;12.80;95.60;14.40;99376.00;;;;5016484;28;20534;-66
2024/04/04 02:22:44;;;;;;;0.32;0.32;;;12.80;95.60;14.40;99396.00;;;;5020057;28;20201;-62
2024/04/04 02:25:11;;;;;;;0.30;0.30;;;12.90;95.70;14.50;99355.00;;;;5016792;28;20213;-62
2024/04/04 02:27:38;;;;;;;0.30;0.30;;;12.90;95.70;14.50;99380.00;;;;5017813;28;20300;-62
2024/04/04 02:30:07;;;;;;;0.30;0.30;;;12.90;95.70;14.50;99385.00;;;;5015846;28;20209;-61
2024/04/04 02:32:35;;;;;;;0.40;0.40;;;13.00;95.80;14.60;99381.00;;;;5013624;28;20201;-61
2024/04/04 02:35:04;;;;;;;0.30;0.30;;;13.00;95.80;14.60;99380.00;;;;5016005;28;20222;-61
2024/04/04 02:37:34;;;;;;;0.30;0.30;;;13.00;95.80;14.70;99373.00;;;;5015795;28;20308;-60
2024/04/04 02:40:02;;;;;;;0.30;0.30;;;13.10;95.90;14.70;99372.00;;;;5014244;28;20205;-61
2024/04/04 02:42:30;;;;;;;0.30;0.30;;;13.10;95.90;14.70;99368.00;;;;5018181;28;20212;-62
2024/04/04 02:44:58;;;;;;;0.30;0.30;;;13.20;96.00;14.80;99368.00;;;;5015049;28;20643;-61
2024/04/04 02:47:24;;;;;;;0.40;0.40;;;13.20;96.00;14.80;99359.00;;;;5019068;28;20592;-61
2024/04/04 02:49:54;;;;;;;0.30;0.30;;;13.20;96.10;14.90;99353.00;;;;5018952;28;20623;-64
2024/04/04 02:52:20;;;;;;;0.40;0.40;;;13.30;96.20;14.90;99353.00;;;;5019788;28;20746;-61
2024/04/04 02:54:51;;;;;;;0.40;0.40;;;13.30;96.20;14.90;99329.00;;;;5017736;28;20323;-63
2024/04/04 02:57:17;;;;;;;0.30;0.30;;;13.30;96.20;15.00;99330.00;;;;5018474;28;20292;-62
2024/04/04 02:59:47;;;;;;;0.38;0.38;;;13.40;96.30;15.00;99340.00;;;;5017636;28;20210;-61
2024/04/04 03:02:13;;;;;;;0.40;0.40;;;13.40;96.30;15.10;99318.00;;;;5018195;28;20664;-61
2024/04/04 03:04:41;;;;;;;0.40;0.40;;;13.40;96.40;15.20;99332.00;;;;5016288;28;20204;-62
2024/04/04 03:07:11;;;;;;;0.30;0.30;;;13.50;96.40;15.20;99325.00;;;;5016981;28;20565;-61
2024/04/04 03:09:39;;;;;;;0.38;0.38;;;13.50;96.50;15.20;99336.00;;;;5013702;28;20209;-62
2024/04/04 03:12:06;;;;;;;0.30;0.30;;;13.50;96.40;15.20;99320.00;;;;5015309;28;20570;-61
2024/04/04 03:14:34;;;;;;;0.30;0.30;;;13.50;96.50;15.10;99319.00;;;;5017347;28;20327;-61
2024/04/04 03:17:00;;;;;;;0.30;0.30;;;13.50;96.50;15.30;99316.00;;;;5013703;28;20930;-60
2024/04/04 03:19:27;;;;;;;0.30;0.30;;;13.50;96.50;15.30;99325.00;;;;5017020;28;20566;-64
2024/04/04 03:21:53;;;;;;;0.32;0.32;;;13.60;96.60;15.30;99297.00;;;;5018408;28;20208;-61
2024/04/04 03:24:22;;;;;;;0.40;0.40;;;13.60;96.60;15.30;99306.00;;;;5015145;28;20217;-60
2024/04/04 03:26:48;;;;;;;0.38;0.38;;;13.60;96.70;15.30;99295.00;;;;5016305;28;20231;-61
2024/04/04 03:29:15;;;;;;;0.40;0.40;;;13.60;96.70;15.30;99305.00;;;;5016988;28;20271;-61
2024/04/04 03:31:42;;;;;;;0.40;0.40;;;13.60;96.70;15.30;99297.00;;;;5014008;28;20206;-61
2024/04/04 03:34:09;;;;;;;0.40;0.40;;;13.60;96.80;15.30;99277.00;;;;5017650;28;20239;-65
2024/04/04 03:36:35;;;;;;;0.38;0.38;;;13.60;96.80;15.30;99291.00;;;;5017601;28;20906;-65
2024/04/04 03:39:03;;;;;;;0.30;0.30;;;13.60;96.90;15.30;99284.00;;;;5018135;28;20222;-65
2024/04/04 03:41:33;;;;;;;0.30;0.30;;;13.60;96.90;15.30;99290.00;;;;5016925;28;20640;-66
2024/04/04 03:44:00;;;;;;;0.40;0.40;;;13.70;97.00;15.40;99283.00;;;;5013456;28;20237;-62
2024/04/04 03:46:27;;;;;;;0.30;0.30;;;13.70;97.00;15.40;99287.00;;;;5014269;28;20213;-60
2024/04/04 03:48:53;;;;;;;0.30;0.30;;;13.70;97.10;15.40;99289.00;;;;5015993;28;20640;-60
2024/04/04 03:51:20;;;;;;;0.40;0.40;;;13.70;97.10;15.40;99258.00;;;;5015378;28;20206;-60
2024/04/04 03:53:47;;;;;;;0.30;0.30;;;13.70;97.20;15.40;99274.00;;;;5015051;28;20247;-60
2024/04/04 03:56:14;;;;;;;0.40;0.40;;;13.80;97.20;15.40;99239.00;;;;5014941;28;20228;-59
2024/04/04 03:58:47;;;;;;;0.30;0.30;;;13.80;97.30;15.40;99271.00;;;;5014936;28;20213;-60
2024/04/04 04:01:14;;;;;;;0.40;0.40;;;13.80;97.40;15.50;99269.00;;;;5014973;28;20216;-60
2024/04/04 04:03:40;;;;;;;0.40;0.40;;;13.80;97.30;15.50;99270.00;;;;5014320;28;20339;-60
2024/04/04 04:06:07;;;;;;;0.30;0.30;;;13.90;97.40;15.50;99257.00;;;;5012020;28;20291;-61
2024/04/04 04:08:34;;;;;;;0.40;0.40;;;13.90;97.40;15.60;99269.00;;;;5012732;28;20291;-61
2024/04/04 04:11:01;;;;;;;0.40;0.40;;;13.90;97.40;15.60;99265.00;;;;5013220;28;20532;-61
2024/04/04 04:13:27;;;;;;;0.38;0.38;;;13.90;97.50;15.60;99231.00;;;;5015039;28;20283;-61
2024/04/04 04:16:01;;;;;;;0.30;0.30;;;13.90;97.50;15.60;99212.00;;;;5010339;28;20272;-61
2024/04/04 04:18:28;;;;;;;0.40;0.40;;;14.00;97.70;15.60;99244.00;;;;5016033;28;20209;-61
2024/04/04 04:23:40;;;;;;;0.40;0.40;;;14.10;97.70;15.70;99244.00;;;;5014978;28;20212;-66
2024/04/04 04:26:06;;;;;;;0.30;0.30;;;14.10;97.70;15.70;99255.00;;;;5012969;28;20295;-60
2024/04/04 04:28:34;;;;;;;0.40;0.40;;;14.10;97.70;15.70;99248.00;;;;5017982;28;20206;-61
2024/04/04 04:31:03;;;;;;;0.40;0.40;;;14.10;97.70;15.80;99243.00;;;;5014198;28;20206;-61
2024/04/04 04:33:30;;;;;;;0.30;0.30;;;14.10;97.70;15.80;99239.00;;;;5012629;28;20232;-61
2024/04/04 04:36:01;;;;;;;0.40;0.40;;;14.20;97.80;15.80;99229.00;;;;5015508;28;20866;-60
2024/04/04 04:38:27;;;;;;;0.32;0.32;;;14.20;97.80;15.90;99233.00;;;;5017126;28;20642;-60
2024/04/04 04:41:05;;;;;;;0.40;0.40;;;14.30;97.90;15.80;99233.00;;;;5016721;28;20213;-60
2024/04/04 04:43:31;;;;;;;0.30;0.30;;;14.30;98.10;16.00;99197.00;;;;5022812;28;20252;-66
2024/04/04 04:45:58;;;;;;;0.30;0.30;;;14.30;97.90;16.00;99214.00;;;;5015941;28;20213;-64
2024/04/04 04:48:26;;;;;;;0.32;0.32;;;14.40;97.90;16.00;99216.00;;;;5019518;28;20660;-64
2024/04/04 04:50:53;;;;;;;0.30;0.30;;;14.40;98.00;16.10;99217.00;;;;5015853;28;20202;-64
2024/04/04 04:53:19;;;;;;;0.30;0.30;;;14.40;97.90;16.10;99230.00;;;;5019189;28;20283;-65
2024/04/04 04:55:49;;;;;;;0.30;0.30;;;14.50;98.00;16.10;99201.00;;;;5018571;28;20576;-63
2024/04/04 04:58:15;;;;;;;0.30;0.30;;;14.50;98.30;16.20;99212.00;;;;5020550;28;20424;-62
2024/04/04 05:00:44;;;;;;;0.30;0.30;;;14.50;98.00;16.20;99214.00;;;;5018775;28;20209;-63
2024/04/04 05:03:12;;;;;;;0.40;0.40;;;14.60;98.00;16.20;99173.00;;;;5017005;28;20295;-62
2024/04/04 05:05:40;;;;;;;0.30;0.30;;;14.60;98.00;16.20;99213.00;;;;5016757;28;20201;-65
2024/04/04 05:08:07;;;;;;;0.30;0.30;;;14.60;98.00;16.20;99211.00;;;;5017475;28;20215;-65
2024/04/04 05:10:34;;;;;;;0.40;0.40;;;14.70;98.00;16.30;99161.00;;;;5020707;28;20570;-66
2024/04/04 05:13:01;;;;;;;0.30;0.30;;;14.70;98.00;16.30;99196.00;;;;5018298;28;20269;-61
2024/04/04 05:15:28;;;;;;;0.30;0.30;;;14.70;98.00;16.30;99196.00;;;;5014787;28;20241;-61
2024/04/04 05:17:54;;;;;;;0.40;0.40;;;14.70;98.00;16.30;99193.00;;;;5017499;28;20213;-61
2024/04/04 05:20:21;;;;;;;0.40;0.40;;;14.80;98.10;16.30;99189.00;;;;5018527;28;20204;-61
2024/04/04 05:22:49;;;;;;;0.40;0.40;;;14.80;98.10;16.30;99194.00;;;;5017984;28;20561;-61
2024/04/04 05:25:16;;;;;;;0.40;0.40;;;14.80;98.10;16.40;99185.00;;;;5020161;28;20233;-61
2024/04/04 05:27:43;;;;;;;0.30;0.30;;;14.80;98.10;16.40;99168.00;;;;5020585;28;20267;-63
2024/04/04 05:30:14;;;;;;;0.30;0.30;;;14.80;98.20;16.40;99159.00;;;;5018455;28;20532;-60
2024/04/04 05:32:40;;;;;;;0.40;0.40;;;14.90;98.20;16.40;99171.00;;;;5020228;28;20287;-64
2024/04/04 05:35:08;;;;;;;0.30;0.30;;;14.90;98.20;16.40;99160.00;;;;5016856;28;20773;-60
2024/04/04 05:37:36;;;;;;;0.30;0.30;;;14.90;98.20;16.40;99176.00;;;;5016351;28;20214;-63
2024/04/04 05:40:09;;;;;;;0.35;0.35;;;14.90;98.20;16.40;99173.00;;;;5017368;28;20217;-61
2024/04/04 05:42:36;;;;;;;0.30;0.30;;;14.90;98.30;16.40;99166.00;;;;5019664;28;20224;-61
2024/04/04 05:45:05;;;;;;;0.30;0.30;;;14.90;98.30;16.40;99177.00;;;;5015289;28;20710;-64
2024/04/04 05:47:37;;;;;;;0.30;0.30;;;14.90;98.30;16.40;99173.00;;;;5014159;28;20201;-60
2024/04/04 05:50:09;;;;;;;0.38;0.38;;;14.90;98.40;16.40;99165.00;;;;5012458;28;20229;-61
2024/04/04 05:52:36;;;;;;;0.30;0.30;;;14.90;98.40;16.50;99160.00;;;;5017801;28;20216;-64
2024/04/04 05:55:10;;;;;;;0.40;0.40;;;14.90;98.40;16.40;99149.00;;;;5014302;28;20732;-60
2024/04/04 05:57:37;;;;;;;0.40;0.40;;;14.90;98.50;16.50;99154.00;;;;5016945;28;20334;-61
2024/04/04 06:00:08;;;;;;;0.38;0.38;;;14.90;98.50;16.50;99152.00;;;;5014138;28;20216;-61
2024/04/04 06:02:34;;;;;;;0.32;0.32;;;14.90;98.50;16.50;99155.00;;;;5016578;28;20300;-60
2024/04/04 06:05:03;;;;;;;0.40;0.40;;;14.90;98.50;16.50;99165.00;;;;5018444;28;20293;-61
2024/04/04 06:07:32;;;;;;;0.35;0.35;;;14.90;98.50;16.50;99159.00;;;;5018258;28;20209;-61
2024/04/04 06:10:00;;;;;;;0.40;0.40;;;14.90;98.70;16.50;99154.00;;;;5014518;28;20210;-62
2024/04/04 06:12:29;;;;;;;0.32;0.32;;;14.90;98.60;16.50;99156.00;;;;5018786;28;20201;-60
2024/04/04 06:14:56;;;;;;;0.40;0.40;;;14.90;98.70;16.50;99155.00;;;;5016880;28;20205;-60
2024/04/04 06:17:23;;;;;;;0.30;0.30;;;14.90;98.70;16.50;99084.00;;;;5015442;28;20618;-60
2024/04/04 06:19:54;;;;;;;0.35;0.35;;;14.90;98.70;16.50;99144.00;;;;5014626;28;20189;-60
2024/04/04 06:22:21;;;;;;;0.30;0.30;;;14.90;98.70;16.50;99148.00;;;;5017963;28;20204;-60
2024/04/04 06:24:51;;;;;;;0.30;0.30;;;14.90;98.70;16.50;99142.00;;;;5014404;28;20209;-66
2024/04/04 06:27:17;;;;;;;0.30;0.30;;;14.90;98.80;16.50;99106.00;;;;5015369;28;20262;-67
2024/04/04 06:29:46;;;;;;;0.30;0.30;;;15.00;98.80;16.60;99127.00;;;;5013201;28;20229;-66
2024/04/04 06:32:15;;;;;;;0.30;0.30;;;15.00;98.90;16.60;99131.00;;;;5014626;28;20209;-67
2024/04/04 06:34:43;;;;;;;0.30;0.30;;;15.00;98.90;16.60;99134.00;;;;5013264;28;20213;-61
2024/04/04 06:37:10;;;;;;;0.40;0.40;;;15.00;99.00;16.60;99132.00;;;;5016108;28;20278;-61
2024/04/04 06:39:37;;;;;;;0.32;0.32;;;15.00;99.00;16.60;99132.00;;;;5017678;28;20490;-61
2024/04/04 06:42:05;;;;;;;0.30;0.30;;;15.00;99.00;16.60;99117.00;;;;5016918;28;20210;-61
2024/04/04 06:44:32;;;;;;;0.32;0.32;;;15.00;99.00;16.60;99122.00;;;;5019727;28;20228;-67
2024/04/04 06:47:01;;;;;;;0.40;0.40;;;15.00;99.10;16.60;99118.00;;;;5020071;28;20223;-65
2024/04/04 06:49:28;;;;;;;0.40;0.40;;;15.00;99.20;16.60;99126.00;;;;5019434;28;20227;-67
2024/04/04 06:51:55;;;;;;;0.32;0.32;;;15.00;99.10;16.60;99118.00;;;;5013878;28;20202;-67
2024/04/04 06:54:23;;;;;;;0.30;0.30;;;15.10;99.20;16.70;99117.00;;;;5020482;28;20228;-61
2024/04/04 06:56:49;;;;;;;0.30;0.30;;;15.00;99.20;16.70;99111.00;;;;5019834;28;20228;-60
2024/04/04 06:59:17;;;;;;;0.30;0.30;;;15.00;99.20;16.70;99117.00;;;;5019423;28;20209;-60
2024/04/04 07:01:45;;;;;;;0.30;0.30;;;15.00;99.30;16.70;99115.00;;;;5016227;28;20292;-61
2024/04/04 07:04:14;;;;;;;0.30;0.30;;;15.10;99.30;16.70;99107.00;;;;5017794;28;20245;-67
2024/04/04 07:06:44;;;;;;;0.40;0.40;;;15.10;99.40;16.70;99109.00;;;;5018326;28;20197;-69
2024/04/04 07:09:11;;;;;;;0.30;0.30;;;15.10;99.40;16.70;99091.00;;;;5018319;28;20206;-67
2024/04/04 07:11:39;;;;;;;0.35;0.35;;;15.10;99.40;16.70;99072.00;;;;5018300;28;20204;-68
2024/04/04 07:14:07;;;;;;;0.30;0.30;;;15.10;99.40;16.70;99096.00;;;;5017501;28;20213;-67
2024/04/04 07:16:33;;;;;;;0.30;0.30;;;15.10;99.40;16.60;99110.00;;;;5014138;28;20225;-70
2024/04/04 07:19:02;;;;;;;0.30;0.30;;;15.10;99.50;16.70;99105.00;;;;5013634;28;20296;-67
2024/04/04 07:21:30;;;;;;;0.40;0.40;;;15.10;99.50;16.70;99064.00;;;;5013836;28;20217;-67
2024/04/04 07:23:57;;;;;;;0.30;0.30;;;15.10;99.60;16.70;99106.00;;;;5014993;28;20217;-68
2024/04/04 07:26:24;;;;;;;0.30;0.30;;;15.10;99.60;16.70;99094.00;;;;5011951;28;20206;-66
2024/04/04 07:28:52;;;;;;;0.40;0.40;;;15.10;99.60;16.70;99106.00;;;;5012102;28;20671;-66
2024/04/04 07:31:19;;;;;;;0.30;0.30;;;15.10;99.60;16.70;99117.00;;;;5015512;28;20202;-66
2024/04/04 07:33:46;;;;;;;0.30;0.30;;;15.10;99.60;16.70;99103.00;;;;5017128;28;20205;-60
2024/04/04 07:36:13;;;;;;;0.40;0.40;;;15.10;99.60;16.80;99112.00;;;;5013791;28;20664;-60
2024/04/04 07:38:45;;;;;;;0.43;0.43;;;15.10;99.70;16.80;99060.00;;;;5014834;28;20779;-60
2024/04/04 07:41:12;;;;;;;0.47;0.47;;;15.10;99.70;16.70;99066.00;;;;5014774;28;20206;-61
2024/04/04 07:43:40;;;;;;;0.30;0.30;;;15.20;99.70;16.80;99101.00;;;;5015084;28;20255;-61
2024/04/04 07:46:07;;;;;;;0.30;0.30;;;15.20;99.80;16.80;99094.00;;;;5010140;28;20213;-60
2024/04/04 07:48:35;;;;;;;0.30;0.30;;;15.20;99.80;16.80;99065.00;;;;5016419;28;20539;-60
2024/04/04 07:51:04;;;;;;;0.30;0.30;;;15.20;99.80;16.90;99101.00;;;;5012751;28;20205;-61
2024/04/04 07:53:31;;;;;;;0.40;0.40;;;15.20;99.80;16.90;99090.00;;;;5020765;28;20706;-62
2024/04/04 07:55:59;;;;;;;0.32;0.32;;;15.30;99.90;16.90;99108.00;;;;5013066;28;20232;-60
2024/04/04 07:58:27;;;;;;;0.40;0.40;;;15.30;99.90;16.90;99152.00;;;;5015863;28;20304;-61
2024/04/04 08:00:54;;;;;;;0.30;0.30;;;15.30;99.80;16.90;99160.00;;;;5015067;28;20453;-61
2024/04/04 08:03:22;;;;;;;0.30;0.30;;;15.30;99.80;16.90;99188.00;;;;5020843;28;20619;-63
2024/04/04 08:05:54;;;;;;;0.30;0.30;;;15.30;99.80;16.90;99188.00;;;;5011505;28;20276;-62
2024/04/04 08:08:21;;;;;;;0.30;0.30;;;15.30;99.90;16.90;99193.00;;;;5016885;28;20228;-61
2024/04/04 08:10:49;;;;;;;0.40;0.40;;;15.30;99.60;16.80;99183.00;;;;5011802;28;20208;-61
2024/04/04 08:13:17;;;;;;;0.30;0.30;;;15.30;99.50;16.70;99182.00;;;;5012037;28;20254;-64
2024/04/04 08:15:49;;;;;;;0.30;0.30;;;15.30;99.30;16.60;99173.00;;;;5016323;28;20673;-65
2024/04/04 08:18:19;;;;;;;0.30;0.30;;;15.30;99.30;16.60;99156.00;;;;5015088;28;20202;-66
2024/04/04 08:20:46;;;;;;;0.30;0.30;;;15.20;99.20;16.50;99172.00;;;;5011181;28;20292;-65
2024/04/04 08:23:13;;;;;;;0.30;0.30;;;15.10;99.00;16.50;99136.00;;;;5013896;28;20635;-66
2024/04/04 08:25:40;;;;;;;0.30;0.30;;;15.10;99.00;16.40;99092.00;;;;5015798;28;20296;-66
2024/04/04 08:28:09;;;;;;;0.30;0.30;;;15.10;99.10;16.40;99060.00;;;;5017670;28;20212;-67
2024/04/04 08:30:36;;;;;;;0.30;0.30;;;15.00;99.00;16.40;99123.00;;;;5015507;28;20205;-68
2024/04/04 08:33:07;;;;;;;0.30;0.30;;;15.00;99.10;16.40;99165.00;;;;5011976;28;20551;-65
2024/04/04 08:35:37;;;;;;;0.40;0.40;;;14.90;99.10;16.40;99166.00;;;;5015105;28;20614;-66
2024/04/04 08:38:05;;;;;;;0.30;0.30;;;14.90;99.10;16.40;99176.00;;;;5018435;28;20311;-66
2024/04/04 08:40:36;;;;;;;0.30;0.30;;;14.90;99.20;16.40;99203.00;;;;5014932;28;20278;-68
2024/04/04 08:43:03;;;;;;;0.30;0.30;;;14.90;99.20;16.30;99201.00;;;;5011379;28;20258;-67
2024/04/04 08:45:34;;;;;;;0.30;0.30;;;14.90;99.30;16.30;99159.00;;;;5011846;28;20206;-68
2024/04/04 08:48:07;;;;;;;0.30;0.30;;;14.90;99.40;16.30;99199.00;;;;5015320;28;20213;-65
2024/04/04 08:50:34;;;;;;;0.30;0.30;;;14.90;99.40;16.30;99206.00;;;;5015811;28;20255;-66
2024/04/04 08:53:03;;;;;;;0.30;0.30;;;14.80;99.50;16.30;99208.00;;;;5015756;28;20316;-65
2024/04/04 08:55:30;;;;;;;0.32;0.32;;;14.90;99.50;16.30;99200.00;;;;5012174;28;20213;-67
2024/04/04 08:57:58;;;;;;;0.30;0.30;;;14.80;99.50;16.30;99218.00;;;;5010268;28;20725;-70
2024/04/04 09:00:24;;;;;;;0.40;0.40;;;14.80;99.50;16.30;99220.00;;;;5009224;28;20210;-64
2024/04/04 09:02:52;;;;;;;0.40;0.40;;;14.90;99.60;16.30;99233.00;;;;5009632;28;20202;-68
2024/04/04 09:05:20;;;;;;;0.30;0.30;;;14.90;99.70;16.30;99233.00;;;;5013733;28;20216;-60
2024/04/04 09:07:48;;;;;;;0.30;0.30;;;14.80;99.70;16.30;99253.00;;;;5013799;28;20202;-62
2024/04/04 09:10:16;;;;;;;0.30;0.30;;;14.90;99.70;16.30;99255.00;;;;5013553;28;20652;-61
2024/04/04 09:12:44;;;;;;;0.30;0.30;;;14.90;99.70;16.30;99251.00;;;;5014415;28;20605;-61
2024/04/04 09:15:14;;;;;;;0.30;0.30;;;14.90;99.60;16.30;99247.00;;;;5015289;28;21273;-62
2024/04/04 09:17:41;;;;;;;0.30;0.30;;;14.90;99.70;16.30;99241.00;;;;5012925;28;20229;-61
2024/04/04 09:20:19;;;;;;;0.30;0.30;;;14.90;99.70;16.40;99252.00;;;;5010989;28;20600;-64
2024/04/04 09:22:56;;;;;;;0.30;0.30;;;14.90;99.70;16.30;99222.00;;;;5014531;28;20681;-61
2024/04/04 09:25:22;;;;;;;0.30;0.30;;;14.90;99.80;16.50;99233.00;;;;5014968;28;20205;-64
2024/04/04 09:27:49;;;;;;;0.40;0.40;;;15.00;99.80;16.50;99255.00;;;;5021574;28;20221;-64
2024/04/04 09:30:19;;;;;;;0.30;0.30;;;15.00;99.80;16.60;99236.00;;;;5016632;28;20196;-64
2024/04/04 09:32:47;;;;;;;0.30;0.30;;;15.10;99.90;16.70;99256.00;;;;5019723;28;20217;-66
2024/04/04 09:35:15;;;;;;;0.40;0.40;;;15.10;99.90;16.70;99241.00;;;;5016479;28;20208;-64
2024/04/04 09:37:47;;;;;;;0.30;0.30;;;15.20;99.90;16.80;99257.00;;;;5018862;28;20209;-64
2024/04/04 09:40:14;;;;;;;0.30;0.30;;;15.30;99.90;16.90;99260.00;;;;5014511;28;20200;-66
2024/04/04 09:42:44;;;;;;;0.30;0.30;;;15.30;99.90;17.00;99256.00;;;;5018841;28;20280;-66
2024/04/04 09:45:12;;;;;;;0.30;0.30;;;15.40;99.90;17.10;99247.00;;;;5017952;28;20271;-65
2024/04/04 09:47:44;;;;;;;0.30;0.30;;;15.50;99.90;17.10;99275.00;;;;5018923;28;20216;-67
2024/04/04 09:50:14;;;;;;;0.40;0.40;;;15.60;99.90;17.20;99285.00;;;;5014759;28;20614;-65
2024/04/04 09:52:43;;;;;;;0.30;0.30;;;15.70;99.90;17.30;99270.00;;;;5020474;28;20558;-64
2024/04/04 09:55:14;;;;;;;0.30;0.30;;;15.80;99.80;17.40;99257.00;;;;5018609;28;20304;-68
2024/04/04 09:57:46;;;;;;;0.30;0.30;;;15.80;99.80;17.40;99283.00;;;;5019987;28;20240;-63
2024/04/04 10:00:15;;;;;;;0.30;0.30;;;15.90;99.70;17.40;99308.00;;;;5020464;28;20233;-65
2024/04/04 10:02:49;;;;;;;0.38;0.38;;;16.00;99.60;17.50;99311.00;;;;5014333;28;20207;-66
2024/04/04 10:05:18;;;;;;;0.30;0.30;;;16.00;99.30;17.50;99307.00;;;;5019504;28;20209;-62
2024/04/04 10:07:47;;;;;;;0.30;0.30;;;16.00;99.20;17.50;99307.00;;;;5016292;28;20198;-60
2024/04/04 10:10:16;;;;;;;0.40;0.40;;;16.10;99.10;17.50;99292.00;;;;5015723;28;20239;-61
2024/04/04 10:12:50;;;;;;;0.30;0.30;;;16.10;99.00;17.50;99295.00;;;;5014623;28;20197;-60
2024/04/04 10:15:18;;;;;;;0.30;0.30;;;16.20;99.00;17.60;99310.00;;;;5014918;28;20211;-65
2024/04/04 10:17:46;;;;;;;0.30;0.30;;;16.20;98.90;17.60;99299.00;;;;5014805;28;20307;-63
2024/04/04 10:20:12;;;;;;;0.35;0.35;;;16.20;98.80;17.60;99290.00;;;;5014718;28;20757;-65
2024/04/04 10:22:40;;;;;;;0.30;0.30;;;16.20;98.70;17.60;99311.00;;;;5020937;28;20518;-65
2024/04/04 10:25:08;;;;;;;0.40;0.40;;;16.20;98.60;17.60;99280.00;;;;5018295;28;20218;-63
2024/04/04 10:27:35;;;;;;;0.30;0.30;;;16.30;98.70;17.70;99304.00;;;;5016323;28;20543;-64
2024/04/04 10:30:03;;;;;;;0.30;0.30;;;16.30;98.60;17.70;99298.00;;;;5016406;28;20259;-66
2024/04/04 10:32:33;;;;;;;0.30;0.30;;;16.30;98.60;17.70;99293.00;;;;5014966;28;20212;-66
2024/04/04 10:35:02;;;;;;;0.30;0.30;;;16.30;98.60;17.70;99299.00;;;;5015412;28;20240;-60
2024/04/04 10:37:30;;;;;;;0.40;0.40;;;16.30;98.80;17.70;99309.00;;;;5017954;28;20231;-59
2024/04/04 10:39:57;;;;;;;0.30;0.30;;;16.30;98.50;17.80;99313.00;;;;5016274;28;20210;-61
2024/04/04 10:42:27;;;;;;;0.30;0.30;;;16.40;98.50;17.80;99326.00;;;;5015889;28;20675;-63
2024/04/04 10:44:54;;;;;;;0.30;0.30;;;16.40;98.60;17.80;99319.00;;;;5015646;28;20248;-62
2024/04/04 10:47:22;;;;;;;0.40;0.40;;;16.40;98.60;17.90;99298.00;;;;5014978;28;20209;-59
2024/04/04 10:49:48;;;;;;;0.30;0.30;;;16.40;98.40;17.90;99332.00;;;;5014782;28;20312;-60
2024/04/04 10:52:18;;;;;;;0.30;0.30;;;16.50;98.50;17.90;99334.00;;;;5017034;28;20579;-60
2024/04/04 10:54:45;;;;;;;0.30;0.30;;;16.50;98.40;18.00;99337.00;;;;5017336;28;20220;-60
2024/04/04 10:57:12;;;;;;;0.30;0.30;;;16.50;98.30;18.00;99330.00;;;;5016026;28;20232;-60
2024/04/04 10:59:39;;;;;;;0.30;0.30;;;16.60;98.20;18.00;99331.00;;;;5016377;28;20513;-60